createdAt,value
2022-11-26T00:02:23.559Z,15.40
2022-11-26T00:04:50.388Z,23.88
2022-11-26T00:07:18.805Z,21.33
2022-11-26T00:09:45.195Z,18.00
2022-11-26T00:12:23.268Z,21.52
2022-11-26T00:14:49.668Z,16.40
2022-11-26T00:17:16.279Z,17.60
2022-11-26T00:19:43.641Z,22.05
2022-11-26T00:22:30.402Z,20.58
2022-11-26T00:24:57.080Z,20.20
2022-11-26T00:27:25.847Z,19.55
2022-11-26T00:29:52.267Z,21.90
2022-11-26T00:32:20.166Z,23.65
2022-11-26T00:34:46.587Z,23.08
2022-11-26T00:37:25.224Z,24.60
2022-11-26T00:39:51.753Z,22.05
2022-11-26T00:42:18.161Z,18.42
2022-11-26T00:44:44.856Z,24.20
2022-11-26T00:47:11.374Z,25.67
2022-11-26T00:49:37.782Z,20.48
2022-11-26T00:52:04.889Z,20.95
2022-11-26T00:54:31.527Z,21.33
2022-11-26T00:56:57.919Z,19.25
2022-11-26T00:59:24.359Z,17.00
2022-11-26T01:01:53.682Z,22.15
2022-11-26T01:04:20.540Z,25.35
2022-11-26T01:06:46.974Z,19.65
2022-11-26T01:09:18.014Z,21.38
2022-11-26T01:11:44.488Z,23.05
2022-11-26T01:14:15.085Z,21.02
2022-11-26T01:16:42.374Z,26.65
2022-11-26T01:19:10.155Z,22.38
2022-11-26T01:21:36.622Z,21.70
2022-11-26T01:24:03.028Z,23.92
2022-11-26T01:26:32.707Z,17.63
2022-11-26T01:28:59.137Z,23.88
2022-11-26T01:31:26.909Z,23.73
2022-11-26T01:33:53.790Z,17.52
2022-11-26T01:36:33.520Z,20.40
2022-11-26T01:39:13.919Z,18.00
2022-11-26T01:41:52.321Z,18.98
2022-11-26T01:44:20.601Z,19.67
2022-11-26T01:46:47.581Z,21.60
2022-11-26T01:49:18.710Z,19.40
2022-11-26T01:51:46.020Z,20.17
2022-11-26T01:54:12.675Z,18.40
2022-11-26T01:56:40.755Z,21.70
2022-11-26T01:59:10.097Z,21.15
2022-11-26T02:01:36.596Z,23.55
2022-11-26T02:04:20.046Z,17.10
2022-11-26T02:06:47.872Z,17.27
2022-11-26T02:09:14.802Z,22.77
2022-11-26T02:11:41.114Z,24.67
2022-11-26T02:14:10.230Z,22.65
2022-11-26T02:17:06.163Z,19.25
2022-11-26T02:19:38.416Z,22.10
2022-11-26T02:22:12.477Z,25.40
2022-11-26T02:24:41.789Z,26.73
2022-11-26T02:27:08.077Z,23.13
2022-11-26T02:29:54.049Z,25.02
2022-11-26T02:34:59.974Z,29.27
2022-11-26T02:37:32.270Z,28.58
2022-11-26T02:39:58.691Z,32.05
2022-11-26T02:42:30.018Z,21.23
2022-11-26T02:44:58.222Z,24.55
2022-11-26T02:47:27.111Z,20.48
2022-11-26T02:49:54.765Z,26.33
2022-11-26T02:52:21.805Z,26.23
2022-11-26T02:54:49.495Z,28.50
2022-11-26T02:57:18.713Z,26.92
2022-11-26T02:59:45.169Z,28.65
2022-11-26T03:02:14.881Z,26.33
2022-11-26T03:04:43.745Z,27.77
2022-11-26T03:07:10.537Z,23.98
2022-11-26T03:09:51.395Z,28.13
2022-11-26T03:12:17.915Z,23.42
2022-11-26T03:14:44.354Z,26.00
2022-11-26T03:17:13.614Z,30.98
2022-11-26T03:19:40.051Z,21.25
2022-11-26T03:22:06.667Z,25.40
2022-11-26T03:24:33.087Z,29.75
2022-11-26T03:26:59.484Z,24.38
2022-11-26T03:29:25.940Z,24.35
2022-11-26T03:31:52.394Z,26.25
2022-11-26T03:34:18.858Z,23.83
2022-11-26T03:36:45.217Z,25.48
2022-11-26T03:39:11.541Z,25.67
2022-11-26T03:41:38.013Z,23.30
2022-11-26T03:44:04.469Z,26.15
2022-11-26T03:46:30.846Z,24.85
2022-11-26T03:48:57.194Z,30.63
2022-11-26T03:51:23.511Z,24.98
2022-11-26T03:53:49.946Z,27.27
2022-11-26T03:56:16.394Z,25.25
2022-11-26T03:58:42.790Z,26.25
2022-11-26T04:01:09.628Z,26.83
2022-11-26T04:03:36.170Z,31.08
2022-11-26T04:06:02.982Z,27.70
2022-11-26T04:08:29.379Z,26.70
2022-11-26T04:10:55.692Z,28.30
2022-11-26T04:13:22.114Z,28.75
2022-11-26T04:15:48.728Z,34.40
2022-11-26T04:18:15.217Z,30.75
2022-11-26T04:20:41.652Z,26.52
2022-11-26T04:23:07.998Z,26.65
2022-11-26T04:25:34.732Z,33.20
2022-11-26T04:28:01.095Z,32.22
2022-11-26T04:30:29.831Z,33.78
2022-11-26T04:32:56.386Z,34.03
2022-11-26T04:35:22.914Z,31.05
2022-11-26T04:37:49.273Z,27.17
2022-11-26T04:40:15.684Z,34.10
2022-11-26T04:42:42.077Z,30.10
2022-11-26T04:45:08.842Z,30.52
2022-11-26T04:47:38.900Z,28.83
2022-11-26T04:50:09.253Z,29.35
2022-11-26T04:52:35.557Z,31.63
2022-11-26T04:55:01.868Z,32.45
2022-11-26T04:57:28.238Z,35.45
2022-11-26T04:59:54.748Z,43.45
2022-11-26T05:02:22.239Z,36.70
2022-11-26T05:04:48.714Z,36.22
2022-11-26T05:07:15.190Z,38.28
2022-11-26T05:09:41.640Z,32.58
2022-11-26T05:12:07.987Z,39.10
2022-11-26T05:14:34.315Z,35.03
2022-11-26T05:17:00.759Z,50.28
2022-11-26T05:19:27.210Z,46.83
2022-11-26T05:21:53.736Z,52.83
2022-11-26T05:24:20.042Z,62.17
2022-11-26T05:26:46.426Z,58.97
2022-11-26T05:29:12.883Z,60.55
2022-11-26T05:31:41.754Z,55.63
2022-11-26T05:34:08.382Z,57.65
2022-11-26T05:36:34.838Z,62.35
2022-11-26T05:39:01.132Z,57.90
2022-11-26T05:41:27.508Z,61.10
2022-11-26T05:43:53.893Z,59.42
2022-11-26T05:46:20.343Z,54.03
2022-11-26T05:48:46.858Z,58.03
2022-11-26T05:51:13.233Z,62.85
2022-11-26T05:53:39.792Z,66.03
2022-11-26T05:56:06.334Z,61.60
2022-11-26T05:58:32.734Z,67.10
2022-11-26T06:00:59.220Z,66.18
2022-11-26T06:03:27.103Z,66.13
2022-11-26T06:05:53.603Z,67.88
2022-11-26T06:08:19.988Z,67.78
2022-11-26T06:10:46.371Z,67.20
2022-11-26T06:13:12.792Z,68.25
2022-11-26T06:15:39.214Z,56.72
2022-11-26T06:18:05.608Z,52.33
2022-11-26T06:20:32.037Z,65.18
2022-11-26T06:22:58.409Z,54.42
2022-11-26T06:25:24.764Z,60.63
2022-11-26T06:27:52.206Z,64.72
2022-11-26T06:30:18.575Z,64.97
2022-11-26T06:32:45.083Z,58.92
2022-11-26T06:35:11.377Z,66.72
2022-11-26T06:37:37.685Z,58.97
2022-11-26T06:40:04.457Z,51.80
2022-11-26T06:42:30.929Z,53.08
2022-11-26T06:45:00.053Z,49.33
2022-11-26T06:47:26.710Z,51.85
2022-11-26T06:49:53.352Z,46.63
2022-11-26T06:52:19.717Z,45.38
2022-11-26T06:54:46.122Z,46.08
2022-11-26T06:57:12.585Z,49.05
2022-11-26T06:59:38.946Z,42.15
2022-11-26T07:02:05.580Z,46.13
2022-11-26T07:04:32.059Z,41.58
2022-11-26T07:06:58.417Z,43.10
2022-11-26T07:09:25.198Z,52.30
2022-11-26T07:11:51.604Z,45.97
2022-11-26T07:14:18.126Z,41.10
2022-11-26T07:16:44.512Z,42.75
2022-11-26T07:19:13.406Z,49.50
2022-11-26T07:21:40.093Z,43.95
2022-11-26T07:24:06.533Z,54.75
2022-11-26T07:26:32.877Z,40.10
2022-11-26T07:28:59.280Z,42.72
2022-11-26T07:31:25.663Z,46.03
2022-11-26T07:33:52.102Z,48.38
2022-11-26T07:36:25.852Z,49.63
2022-11-26T07:38:59.384Z,41.35
2022-11-26T07:41:26.277Z,48.58
2022-11-26T07:43:52.924Z,45.53
2022-11-26T07:46:20.758Z,50.47
2022-11-26T07:48:47.236Z,37.28
2022-11-26T07:51:16.601Z,53.00
2022-11-26T07:53:42.949Z,60.28
2022-11-26T07:56:09.374Z,38.00
2022-11-26T07:58:35.692Z,46.95
2022-11-26T08:01:12.932Z,44.42
2022-11-26T08:03:40.487Z,44.28
2022-11-26T08:06:10.475Z,47.65
2022-11-26T08:08:36.942Z,50.00
2022-11-26T08:11:04.012Z,42.60
2022-11-26T08:13:30.773Z,50.95
2022-11-26T08:15:57.155Z,40.58
2022-11-26T08:18:23.538Z,31.77
2022-11-26T08:20:56.480Z,26.75
2022-11-26T08:23:23.519Z,27.55
2022-11-26T08:26:14.092Z,28.42
2022-11-26T08:28:36.856Z,27.95
2022-11-26T08:31:07.923Z,26.83
2022-11-26T08:33:34.869Z,25.13
2022-11-26T08:36:08.906Z,22.60
2022-11-26T08:38:35.516Z,28.67
2022-11-26T08:41:02.563Z,29.60
2022-11-26T08:43:51.383Z,24.70
2022-11-26T08:46:15.513Z,33.53
2022-11-26T08:48:42.212Z,32.15
2022-11-26T08:51:10.965Z,24.08
2022-11-26T08:53:37.721Z,23.67
2022-11-26T08:56:07.943Z,18.08
2022-11-26T08:58:35.268Z,22.75
2022-11-26T09:01:12.155Z,16.65
2022-11-26T09:03:39.109Z,15.40
2022-11-26T09:06:06.978Z,26.27
2022-11-26T09:08:44.776Z,18.88
2022-11-26T09:11:12.047Z,25.35
2022-11-26T09:13:38.489Z,20.17
2022-11-26T09:16:05.150Z,19.70
2022-11-26T09:18:31.509Z,19.45
2022-11-26T09:21:01.678Z,20.52
2022-11-26T09:23:28.710Z,20.88
2022-11-26T09:25:55.062Z,15.00
2022-11-26T09:28:21.531Z,16.15
2022-11-26T09:30:47.959Z,17.70
2022-11-26T09:33:14.372Z,17.50
2022-11-26T09:35:40.701Z,17.13
2022-11-26T09:38:07.028Z,15.98
2022-11-26T09:40:59.644Z,15.35
2022-11-26T09:43:47.302Z,15.70
2022-11-26T09:46:17.994Z,15.23
2022-11-26T09:48:44.527Z,13.60
2022-11-26T09:51:13.053Z,19.15
2022-11-26T09:53:42.433Z,17.52
2022-11-26T09:56:16.015Z,15.35
2022-11-26T09:58:45.779Z,17.95
2022-11-26T10:01:17.171Z,17.98
2022-11-26T10:03:43.730Z,15.60
2022-11-26T10:06:29.049Z,17.08
2022-11-26T10:08:58.402Z,13.68
2022-11-26T10:11:33.982Z,17.05
2022-11-26T10:18:55.933Z,11.77
2022-11-26T10:24:26.178Z,18.52
2022-11-26T10:26:53.625Z,14.35
2022-11-26T10:29:39.315Z,14.32
2022-11-26T10:32:18.045Z,14.98
2022-11-26T10:34:51.796Z,15.27
2022-11-26T10:37:19.606Z,18.70
2022-11-26T10:39:46.000Z,17.60
2022-11-26T10:42:19.381Z,12.57
2022-11-26T10:44:46.358Z,11.77
2022-11-26T10:47:15.657Z,13.65
2022-11-26T10:49:41.999Z,12.98
2022-11-26T10:52:08.683Z,14.35
2022-11-26T10:54:39.493Z,15.10
2022-11-26T10:57:08.938Z,15.60
2022-11-26T10:59:55.514Z,18.73
2022-11-26T11:02:33.131Z,14.98
2022-11-26T11:05:02.292Z,23.60
2022-11-26T11:07:31.791Z,15.55
2022-11-26T11:10:02.993Z,14.50
2022-11-26T11:12:29.364Z,15.25
2022-11-26T11:14:55.764Z,21.00
2022-11-26T11:17:32.773Z,18.17
2022-11-26T11:20:00.992Z,21.58
2022-11-26T11:22:27.930Z,18.58
2022-11-26T11:24:54.904Z,12.48
2022-11-26T11:27:25.884Z,11.82
2022-11-26T11:29:52.471Z,15.10
2022-11-26T11:32:37.278Z,17.45
2022-11-26T11:35:21.022Z,14.25
2022-11-26T11:37:51.425Z,15.18
2022-11-26T11:40:23.474Z,16.02
2022-11-26T11:42:51.724Z,17.17
2022-11-26T11:45:36.979Z,16.30
2022-11-26T11:48:21.994Z,21.23
2022-11-26T11:50:55.171Z,17.48
2022-11-26T11:53:36.129Z,22.88
2022-11-26T11:56:02.948Z,22.95
2022-11-26T11:58:48.237Z,16.10
2022-11-26T12:01:33.414Z,16.53
2022-11-26T12:04:19.879Z,19.33
2022-11-26T12:06:54.507Z,14.48
2022-11-26T12:09:27.139Z,15.25
2022-11-26T12:11:56.223Z,14.98
2022-11-26T12:14:25.412Z,9.05
2022-11-26T12:16:54.872Z,15.15
2022-11-26T12:19:24.310Z,14.13
2022-11-26T12:21:53.283Z,14.65
2022-11-26T12:24:19.691Z,17.83
2022-11-26T12:26:53.034Z,18.98
2022-11-26T12:29:38.494Z,15.43
2022-11-26T12:32:21.405Z,17.88
2022-11-26T12:34:50.009Z,16.23
2022-11-26T12:37:19.232Z,19.38
2022-11-26T12:39:51.892Z,16.58
2022-11-26T12:42:26.742Z,18.88
2022-11-26T12:44:53.252Z,18.30
2022-11-26T12:47:24.200Z,23.10
2022-11-26T12:49:50.541Z,20.45
2022-11-26T12:52:35.956Z,17.08
2022-11-26T12:55:02.266Z,19.08
2022-11-26T12:57:31.828Z,17.70
2022-11-26T12:59:58.228Z,24.55
2022-11-26T13:02:29.860Z,22.90
2022-11-26T13:04:57.146Z,13.95
2022-11-26T13:07:35.483Z,20.75
2022-11-26T13:10:01.866Z,23.25
2022-11-26T13:12:56.177Z,15.88
2022-11-26T13:15:22.620Z,17.73
2022-11-26T13:17:50.468Z,19.10
2022-11-26T13:20:32.241Z,17.67
2022-11-26T13:22:58.812Z,17.10
2022-11-26T13:25:34.208Z,20.27
2022-11-26T13:28:00.572Z,15.95
2022-11-26T13:30:36.032Z,17.42
2022-11-26T13:33:12.498Z,21.73
2022-11-26T13:35:58.343Z,14.50
2022-11-26T13:38:29.062Z,17.60
2022-11-26T13:40:59.254Z,19.92
2022-11-26T13:43:49.650Z,18.60
2022-11-26T13:46:23.559Z,9.00
2022-11-26T13:49:00.618Z,18.02
2022-11-26T13:51:38.967Z,18.92
2022-11-26T13:54:08.381Z,16.65
2022-11-26T13:56:36.207Z,11.02
2022-11-26T13:59:05.996Z,18.25
2022-11-26T14:01:33.716Z,14.52
2022-11-26T14:04:00.182Z,14.85
2022-11-26T14:06:30.429Z,20.20
2022-11-26T14:08:57.096Z,18.40
2022-11-26T14:11:42.364Z,17.45
2022-11-26T14:14:24.186Z,18.40
2022-11-26T14:17:13.543Z,16.60
2022-11-26T14:19:39.832Z,16.15
2022-11-26T14:22:07.454Z,14.32
2022-11-26T14:24:49.389Z,16.67
2022-11-26T14:27:19.956Z,26.30
2022-11-26T14:29:47.718Z,17.67
2022-11-26T14:32:18.306Z,23.27
2022-11-26T14:34:51.025Z,22.77
2022-11-26T14:37:18.426Z,20.10
2022-11-26T14:39:45.109Z,19.20
2022-11-26T14:42:15.283Z,20.88
2022-11-26T14:44:41.817Z,21.77
2022-11-26T14:47:19.907Z,20.58
2022-11-26T14:50:06.360Z,16.35
2022-11-26T14:52:34.795Z,26.15
2022-11-26T14:55:06.916Z,16.40
2022-11-26T14:57:42.265Z,14.80
2022-11-26T15:00:11.716Z,19.45
2022-11-26T15:02:38.721Z,13.05
2022-11-26T15:05:15.796Z,17.55
2022-11-26T15:07:42.530Z,13.75
2022-11-26T15:10:14.942Z,16.30
2022-11-26T15:12:42.639Z,16.33
2022-11-26T15:15:12.087Z,20.77
2022-11-26T15:17:40.833Z,22.70
2022-11-26T15:20:08.372Z,25.50
2022-11-26T15:22:34.746Z,14.85
2022-11-26T15:25:01.661Z,18.23
2022-11-26T15:27:28.146Z,15.63
2022-11-26T15:29:54.439Z,24.52
2022-11-26T15:32:28.154Z,21.92
2022-11-26T15:34:55.353Z,21.77
2022-11-26T15:37:21.729Z,26.88
2022-11-26T15:39:48.139Z,29.02
2022-11-26T15:42:24.700Z,19.38
2022-11-26T15:44:51.097Z,17.27
2022-11-26T15:47:20.500Z,25.13
2022-11-26T15:49:49.381Z,25.67
2022-11-26T15:52:15.887Z,17.95
2022-11-26T15:55:11.496Z,20.27
2022-11-26T15:57:39.767Z,19.50
2022-11-26T16:00:08.371Z,26.42
2022-11-26T16:02:34.944Z,27.70
2022-11-26T16:05:02.421Z,26.73
2022-11-26T16:07:30.260Z,21.92
2022-11-26T16:10:15.549Z,18.75
2022-11-26T16:12:44.810Z,14.60
2022-11-26T16:15:17.963Z,27.42
2022-11-26T16:17:44.384Z,20.30
2022-11-26T16:20:29.172Z,32.63
2022-11-26T16:22:57.871Z,25.33
2022-11-26T16:25:25.363Z,26.83
2022-11-26T16:28:01.730Z,28.38
2022-11-26T16:30:28.148Z,29.30
2022-11-26T16:32:54.551Z,25.98
2022-11-26T16:35:44.157Z,26.40
2022-11-26T16:38:17.312Z,30.80
2022-11-26T16:40:44.411Z,43.78
2022-11-26T16:43:10.826Z,42.83
2022-11-26T16:45:37.146Z,38.22
2022-11-26T16:48:03.549Z,40.10
2022-11-26T16:50:29.931Z,32.67
2022-11-26T16:52:56.311Z,37.03
2022-11-26T16:55:25.345Z,33.53
2022-11-26T16:57:53.202Z,37.30
2022-11-26T17:00:20.757Z,38.88
2022-11-26T17:02:47.339Z,36.90
2022-11-26T17:05:14.228Z,44.35
2022-11-26T17:07:54.030Z,34.05
2022-11-26T17:10:21.824Z,34.33
2022-11-26T17:12:49.655Z,35.30
2022-11-26T17:15:16.415Z,62.28
2022-11-26T17:17:42.878Z,64.22
2022-11-26T17:20:16.915Z,82.30
2022-11-26T17:22:43.674Z,45.42
2022-11-26T17:25:10.237Z,46.75
2022-11-26T17:27:37.159Z,42.47
2022-11-26T17:30:04.372Z,51.67
2022-11-26T17:32:30.679Z,40.53
2022-11-26T17:34:57.052Z,48.95
2022-11-26T17:37:28.364Z,44.80
2022-11-26T17:39:55.165Z,36.80
2022-11-26T17:42:22.815Z,34.47
2022-11-26T17:44:53.077Z,36.67
2022-11-26T17:47:21.004Z,44.90
2022-11-26T17:49:47.710Z,40.63
2022-11-26T17:52:14.494Z,35.28
2022-11-26T17:54:40.995Z,38.38
2022-11-26T17:57:07.580Z,39.47
2022-11-26T17:59:34.087Z,35.40
2022-11-26T18:02:02.226Z,32.97
2022-11-26T18:04:29.831Z,36.80
2022-11-26T18:06:59.081Z,28.80
2022-11-26T18:09:25.390Z,33.50
2022-11-26T18:11:53.286Z,21.48
2022-11-26T18:14:19.691Z,31.48
2022-11-26T18:16:46.070Z,32.03
2022-11-26T18:19:13.792Z,31.02
2022-11-26T18:21:40.466Z,33.42
2022-11-26T18:24:07.101Z,23.75
2022-11-26T18:26:33.736Z,38.05
2022-11-26T18:29:03.328Z,32.63
2022-11-26T18:31:31.697Z,28.90
2022-11-26T18:34:00.998Z,27.73
2022-11-26T18:36:27.718Z,32.33
2022-11-26T18:38:54.163Z,38.00
2022-11-26T18:41:22.117Z,29.60
2022-11-26T18:43:48.539Z,32.40
2022-11-26T18:46:16.843Z,43.38
2022-11-26T18:48:44.566Z,140.18
2022-11-26T18:51:11.016Z,101.28
2022-11-26T18:53:37.807Z,76.57
2022-11-26T18:56:08.451Z,57.85
2022-11-26T18:58:34.871Z,55.17
2022-11-26T19:01:01.622Z,61.17
2022-11-26T19:03:28.015Z,92.80
2022-11-26T19:05:54.757Z,100.13
2022-11-26T19:08:21.411Z,44.63
2022-11-26T19:10:47.870Z,47.47
2022-11-26T19:13:14.275Z,51.30
2022-11-26T19:15:41.435Z,49.33
2022-11-26T19:18:07.737Z,93.45
2022-11-26T19:20:34.530Z,117.82
2022-11-26T19:23:00.892Z,112.63
2022-11-26T19:25:27.272Z,102.07
2022-11-26T19:27:53.645Z,106.60
2022-11-26T19:30:20.050Z,105.50
2022-11-26T19:32:46.460Z,80.38
2022-11-26T19:35:13.940Z,48.85
2022-11-26T19:37:40.289Z,35.60
2022-11-26T19:40:07.040Z,71.43
2022-11-26T19:42:33.374Z,57.47
2022-11-26T19:44:59.709Z,65.13
2022-11-26T19:47:28.853Z,60.90
2022-11-26T19:49:55.474Z,60.65
2022-11-26T19:52:21.831Z,68.32
2022-11-26T19:54:48.288Z,67.75
2022-11-26T19:57:14.616Z,69.47
2022-11-26T19:59:41.191Z,66.45
2022-11-26T20:02:08.792Z,64.80
2022-11-26T20:04:35.169Z,61.28
2022-11-26T20:07:01.596Z,53.17
2022-11-26T20:09:28.052Z,51.85
2022-11-26T20:11:54.464Z,47.75
2022-11-26T20:14:20.797Z,40.30
2022-11-26T20:16:47.314Z,50.67
2022-11-26T20:19:13.966Z,44.50
2022-11-26T20:21:40.417Z,39.95
2022-11-26T20:24:09.422Z,41.30
2022-11-26T20:26:36.839Z,37.63
2022-11-26T20:29:04.647Z,41.92
2022-11-26T20:31:31.337Z,41.80
2022-11-26T20:33:57.774Z,57.03
2022-11-26T20:36:24.135Z,45.03
2022-11-26T20:38:54.185Z,50.70
2022-11-26T20:41:20.912Z,48.45
2022-11-26T20:43:47.823Z,63.65
2022-11-26T20:46:14.550Z,48.80
2022-11-26T20:48:41.902Z,57.75
2022-11-26T20:51:09.437Z,45.90
2022-11-26T20:53:37.095Z,47.15
2022-11-26T20:56:03.714Z,38.95
2022-11-26T20:58:31.199Z,40.15
2022-11-26T21:00:57.684Z,44.85
2022-11-26T21:03:24.970Z,56.03
2022-11-26T21:05:51.582Z,52.70
2022-11-26T21:08:18.521Z,50.00
2022-11-26T21:10:44.980Z,45.95
2022-11-26T21:13:13.412Z,37.40
2022-11-26T21:15:40.241Z,35.00
2022-11-26T21:18:06.625Z,40.15
2022-11-26T21:20:36.238Z,47.95
2022-11-26T21:23:02.803Z,54.03
2022-11-26T21:25:29.259Z,103.55
2022-11-26T21:27:55.945Z,111.25
2022-11-26T21:30:22.413Z,91.32
2022-11-26T21:32:48.940Z,92.22
2022-11-26T21:35:15.365Z,70.07
2022-11-26T21:37:41.714Z,71.88
2022-11-26T21:40:08.511Z,59.30
2022-11-26T21:42:34.897Z,53.88
2022-11-26T21:45:01.324Z,57.05
2022-11-26T21:47:27.718Z,63.97
2022-11-26T21:49:54.040Z,45.75
2022-11-26T21:52:20.393Z,47.22
2022-11-26T21:54:46.751Z,37.15
2022-11-26T21:57:13.080Z,30.88
2022-11-26T21:59:39.502Z,32.35
2022-11-26T22:02:06.339Z,43.45
2022-11-26T22:04:32.767Z,35.50
2022-11-26T22:06:59.872Z,39.67
2022-11-26T22:09:26.340Z,39.33
2022-11-26T22:11:52.701Z,39.28
2022-11-26T22:14:19.080Z,40.65
2022-11-26T22:16:47.809Z,37.67
2022-11-26T22:19:14.229Z,47.53
2022-11-26T22:21:41.429Z,38.65
2022-11-26T22:24:10.435Z,45.08
2022-11-26T22:26:37.283Z,44.03
2022-11-26T22:29:04.226Z,42.55
2022-11-26T22:31:32.356Z,39.67
2022-11-26T22:34:09.802Z,37.20
2022-11-26T22:36:37.185Z,39.38
2022-11-26T22:39:04.498Z,38.50
2022-11-26T22:41:31.654Z,46.00
2022-11-26T22:43:59.145Z,40.90
2022-11-26T22:46:25.519Z,45.13
2022-11-26T22:48:53.188Z,41.03
2022-11-26T22:51:20.276Z,41.92
2022-11-26T22:53:50.676Z,39.13
2022-11-26T22:56:17.768Z,44.22
2022-11-26T22:58:44.562Z,42.28
2022-11-26T23:01:14.883Z,48.47
2022-11-26T23:03:41.445Z,42.17
2022-11-26T23:06:09.065Z,40.97
2022-11-26T23:08:36.086Z,39.70
2022-11-26T23:11:07.898Z,43.05
2022-11-26T23:13:34.331Z,41.88
2022-11-26T23:16:00.990Z,37.53
2022-11-26T23:18:27.595Z,38.55
2022-11-26T23:21:05.747Z,48.53
2022-11-26T23:23:32.385Z,45.38
2022-11-26T23:26:00.703Z,43.00
2022-11-26T23:28:27.061Z,43.25
2022-11-26T23:30:53.524Z,45.60
2022-11-26T23:33:20.150Z,36.45
2022-11-26T23:35:46.737Z,41.03
2022-11-26T23:38:13.203Z,37.47
2022-11-26T23:40:39.658Z,37.67
2022-11-26T23:43:08.568Z,33.55
2022-11-26T23:45:35.272Z,39.45
2022-11-26T23:48:01.567Z,35.70
2022-11-26T23:50:28.019Z,38.53
2022-11-26T23:52:54.454Z,39.65
2022-11-26T23:55:20.787Z,33.53
2022-11-26T23:57:47.308Z,40.58
